Time,TemperatureF,DewpointF,PressureIn,WindDirection,WindDirectionDegrees,WindSpeedMPH,WindSpeedGustMPH,Humidity,HourlyPrecipIn,Conditions,Clouds,dailyrainin,SoftwareType,DateUTC
2013-05-02 00:11:00,45.7,44.0,30.50,NNW,329,3.0,5.0,92,0.00,,,0.00,weatherlink.com 1.10,2013-05-02 04:11:00,
2013-05-02 00:26:00,44.7,42.0,30.50,North,355,3.0,5.0,91,0.00,,,0.00,weatherlink.com 1.10,2013-05-02 04:26:00,
2013-05-02 00:41:00,44.5,43.0,30.50,North,355,2.0,4.0,93,0.00,,,0.00,weatherlink.com 1.10,2013-05-02 04:41:00,
2013-05-02 00:56:00,44.7,43.0,30.50,North,355,2.0,3.0,93,0.00,,,0.00,weatherlink.com 1.10,2013-05-02 04:56:00,
2013-05-02 01:11:00,44.4,42.0,30.50,North,355,2.0,4.0,92,0.00,,,0.00,weatherlink.com 1.10,2013-05-02 05:11:00,
2013-05-02 01:26:00,44.5,43.0,30.50,North,355,3.0,4.0,93,0.00,,,0.00,weatherlink.com 1.10,2013-05-02 05:26:00,
2013-05-02 01:41:00,44.4,43.0,30.49,North,355,1.0,3.0,93,0.00,,,0.00,weatherlink.com 1.10,2013-05-02 05:41:00,
2013-05-02 01:56:00,44.4,43.0,30.48,North,355,2.0,3.0,93,0.00,,,0.00,weatherlink.com 1.10,2013-05-02 05:56:00,
2013-05-02 02:11:00,44.2,42.0,30.48,North,355,1.0,2.0,93,0.00,,,0.00,weatherlink.com 1.10,2013-05-02 06:11:00,
2013-05-02 02:26:00,44.3,43.0,30.47,North,355,1.0,2.0,94,0.00,,,0.00,weatherlink.com 1.10,2013-05-02 06:26:00,
2013-05-02 02:41:00,44.9,43.0,30.47,North,355,0.0,2.0,94,0.00,,,0.00,weatherlink.com 1.10,2013-05-02 06:41:00,
2013-05-02 02:57:00,44.1,42.0,30.47,North,355,0.0,1.0,93,0.00,,,0.00,weatherlink.com 1.10,2013-05-02 06:57:00,
2013-05-02 03:12:00,44.3,42.0,30.46,North,355,0.0,2.0,93,0.00,,,0.00,weatherlink.com 1.10,2013-05-02 07:12:00,
2013-05-02 03:27:00,44.2,42.0,30.46,North,355,1.0,2.0,93,0.00,,,0.00,weatherlink.com 1.10,2013-05-02 07:27:00,
2013-05-02 03:42:00,44.3,43.0,30.47,North,355,2.0,3.0,94,0.00,,,0.00,weatherlink.com 1.10,2013-05-02 07:42:00,
2013-05-02 03:57:00,43.8,42.0,30.46,North,355,1.0,3.0,94,0.00,,,0.00,weatherlink.com 1.10,2013-05-02 07:57:00,
2013-05-02 04:12:00,43.5,42.0,30.46,North,355,2.0,2.0,94,0.00,,,0.00,weatherlink.com 1.10,2013-05-02 08:12:00,
2013-05-02 04:27:00,43.0,41.0,30.46,North,355,2.0,3.0,94,0.00,,,0.00,weatherlink.com 1.10,2013-05-02 08:27:00,
2013-05-02 04:42:00,42.6,41.0,30.46,North,355,2.0,4.0,94,0.00,,,0.00,weatherlink.com 1.10,2013-05-02 08:42:00,
2013-05-02 04:57:00,42.4,41.0,30.46,NNE,22,3.0,4.0,94,0.00,,,0.00,weatherlink.com 1.10,2013-05-02 08:57:00,
2013-05-02 05:12:00,42.8,41.0,30.47,NE,36,3.0,5.0,94,0.00,,,0.00,weatherlink.com 1.10,2013-05-02 09:12:00,
2013-05-02 05:27:00,43.0,42.0,30.47,NE,42,2.0,4.0,95,0.00,,,0.00,weatherlink.com 1.10,2013-05-02 09:27:00,
2013-05-02 05:42:00,42.5,41.0,30.47,NE,42,0.0,4.0,94,0.00,,,0.00,weatherlink.com 1.10,2013-05-02 09:42:00,
2013-05-02 05:57:00,42.2,41.0,30.47,NE,42,3.0,4.0,94,0.00,,,0.00,weatherlink.com 1.10,2013-05-02 09:57:00,
2013-05-02 06:12:00,43.4,42.0,30.47,NE,44,3.0,3.0,95,0.00,,,0.00,weatherlink.com 1.10,2013-05-02 10:12:00,
2013-05-02 06:27:00,44.6,43.0,30.47,NE,44,2.0,4.0,95,0.00,,,0.00,weatherlink.com 1.10,2013-05-02 10:27:00,
2013-05-02 06:42:00,45.6,44.0,30.47,NE,44,2.0,4.0,95,0.00,,,0.00,weatherlink.com 1.10,2013-05-02 10:42:00,
2013-05-02 06:57:00,46.3,45.0,30.47,NE,45,2.0,4.0,95,0.00,,,0.00,weatherlink.com 1.10,2013-05-02 10:57:00,
2013-05-02 07:12:00,47.1,46.0,30.48,NNE,26,3.0,5.0,94,0.00,,,0.00,weatherlink.com 1.10,2013-05-02 11:12:00,
2013-05-02 07:27:00,47.8,46.0,30.48,NNE,22,1.0,5.0,94,0.00,,,0.00,weatherlink.com 1.10,2013-05-02 11:27:00,
2013-05-02 07:42:00,48.3,46.0,30.48,NNE,22,2.0,4.0,93,0.00,,,0.00,weatherlink.com 1.10,2013-05-02 11:42:00,
2013-05-02 07:57:00,48.7,47.0,30.49,NNE,20,1.0,4.0,93,0.00,,,0.00,weatherlink.com 1.10,2013-05-02 11:57:00,
2013-05-02 08:12:00,50.4,48.0,30.48,North,355,5.0,6.0,92,0.00,,,0.00,weatherlink.com 1.10,2013-05-02 12:12:00,
2013-05-02 08:27:00,52.0,49.0,30.48,North,355,2.0,5.0,88,0.00,,,0.00,weatherlink.com 1.10,2013-05-02 12:27:00,
2013-05-02 08:42:00,54.2,49.0,30.48,North,355,3.0,4.0,82,0.00,,,0.00,weatherlink.com 1.10,2013-05-02 12:42:00,
2013-05-02 08:57:00,56.6,48.0,30.48,North,360,0.0,3.0,74,0.00,,,0.00,weatherlink.com 1.10,2013-05-02 12:57:00,
2013-05-02 09:12:00,58.5,47.0,30.47,NE,34,3.0,5.0,67,0.00,,,0.00,weatherlink.com 1.10,2013-05-02 13:12:00,
2013-05-02 09:27:00,58.7,49.0,30.47,NNE,24,1.0,2.0,69,0.00,,,0.00,weatherlink.com 1.10,2013-05-02 13:27:00,
2013-05-02 09:42:00,57.1,48.0,30.48,NW,320,0.0,2.0,72,0.00,,,0.00,weatherlink.com 1.10,2013-05-02 13:42:00,
2013-05-02 09:57:00,58.0,49.0,30.48,NW,320,0.0,3.0,71,0.00,,,0.00,weatherlink.com 1.10,2013-05-02 13:57:00,
2013-05-02 10:13:00,56.9,48.0,30.48,WSW,251,4.0,5.0,71,0.00,,,0.00,weatherlink.com 1.10,2013-05-02 14:13:00,
2013-05-02 10:28:00,58.7,49.0,30.49,WSW,256,6.0,7.0,70,0.00,,,0.00,weatherlink.com 1.10,2013-05-02 14:28:00,
2013-05-02 10:43:00,56.0,49.0,30.48,WSW,244,4.0,7.0,77,0.00,,,0.00,weatherlink.com 1.10,2013-05-02 14:43:00,
2013-05-02 10:58:00,57.3,49.0,30.48,SSW,209,4.0,7.0,74,0.00,,,0.00,weatherlink.com 1.10,2013-05-02 14:58:00,
2013-05-02 11:13:00,58.8,49.0,30.48,SSW,207,5.0,8.0,70,0.00,,,0.00,weatherlink.com 1.10,2013-05-02 15:13:00,
2013-05-02 11:32:00,58.9,49.0,30.48,WSW,238,7.0,8.0,69,0.00,,,0.00,weatherlink.com 1.10,2013-05-02 15:32:00,
2013-05-02 11:43:00,59.0,47.0,30.47,SW,223,4.0,7.0,64,0.00,,,0.00,weatherlink.com 1.10,2013-05-02 15:43:00,
2013-05-02 11:58:00,60.7,48.0,30.47,SW,219,7.0,10.0,63,0.00,,,0.00,weatherlink.com 1.10,2013-05-02 15:58:00,
2013-05-02 12:13:00,60.0,48.0,30.46,SSE,167,5.0,9.0,65,0.00,,,0.00,weatherlink.com 1.10,2013-05-02 16:13:00,
2013-05-02 12:28:00,60.5,48.0,30.45,SSW,209,7.0,11.0,64,0.00,,,0.00,weatherlink.com 1.10,2013-05-02 16:28:00,
2013-05-02 12:43:00,60.8,46.0,30.45,SW,227,4.0,10.0,59,0.00,,,0.00,weatherlink.com 1.10,2013-05-02 16:43:00,
2013-05-02 12:58:00,60.5,49.0,30.45,West,264,6.0,10.0,65,0.00,,,0.00,weatherlink.com 1.10,2013-05-02 16:58:00,
2013-05-02 13:14:00,61.8,48.0,30.44,South,190,9.0,10.0,61,0.00,,,0.00,weatherlink.com 1.10,2013-05-02 17:14:00,
2013-05-02 13:28:00,59.1,48.0,30.44,West,259,6.0,9.0,68,0.00,,,0.00,weatherlink.com 1.10,2013-05-02 17:28:00,
2013-05-02 13:43:00,58.0,49.0,30.44,West,262,4.0,9.0,71,0.00,,,0.00,weatherlink.com 1.10,2013-05-02 17:43:00,
2013-05-02 13:59:00,57.7,49.0,30.44,West,260,5.0,8.0,72,0.00,,,0.00,weatherlink.com 1.10,2013-05-02 17:59:00,
2013-05-02 14:14:00,58.0,48.0,30.44,West,270,6.0,9.0,70,0.00,,,0.00,weatherlink.com 1.10,2013-05-02 18:14:00,
2013-05-02 14:29:00,60.1,50.0,30.43,SSW,200,8.0,11.0,69,0.00,,,0.00,weatherlink.com 1.10,2013-05-02 18:29:00,
2013-05-02 14:44:00,60.9,49.0,30.43,WSW,240,3.0,10.0,64,0.00,,,0.00,weatherlink.com 1.10,2013-05-02 18:44:00,
2013-05-02 14:59:00,61.3,48.0,30.42,South,169,8.0,11.0,63,0.00,,,0.00,weatherlink.com 1.10,2013-05-02 18:59:00,
2013-05-02 15:14:00,60.5,49.0,30.42,SSW,198,8.0,12.0,65,0.00,,,0.00,weatherlink.com 1.10,2013-05-02 19:14:00,
2013-05-02 15:29:00,59.9,48.0,30.41,SW,217,7.0,13.0,66,0.00,,,0.00,weatherlink.com 1.10,2013-05-02 19:29:00,
2013-05-02 15:44:00,59.8,47.0,30.41,South,175,7.0,12.0,64,0.00,,,0.00,weatherlink.com 1.10,2013-05-02 19:44:00,
2013-05-02 15:59:00,60.1,48.0,30.40,SSW,194,8.0,13.0,64,0.00,,,0.00,weatherlink.com 1.10,2013-05-02 19:59:00,
2013-05-02 16:14:00,60.3,47.0,30.40,WSW,244,6.0,10.0,62,0.00,,,0.00,weatherlink.com 1.10,2013-05-02 20:14:00,
2013-05-02 16:29:00,59.2,48.0,30.39,WSW,246,6.0,10.0,66,0.00,,,0.00,weatherlink.com 1.10,2013-05-02 20:29:00,
2013-05-02 16:44:00,59.7,48.0,30.39,West,273,4.0,5.0,65,0.00,,,0.00,weatherlink.com 1.10,2013-05-02 20:44:00,
2013-05-02 16:59:00,59.8,46.0,30.39,West,272,4.0,5.0,60,0.00,,,0.00,weatherlink.com 1.10,2013-05-02 20:59:00,
2013-05-02 17:14:00,60.9,46.0,30.39,West,269,1.0,4.0,58,0.00,,,0.00,weatherlink.com 1.10,2013-05-02 21:14:00,
2013-05-02 17:29:00,61.8,46.0,30.38,West,267,2.0,4.0,57,0.00,,,0.00,weatherlink.com 1.10,2013-05-02 21:29:00,
2013-05-02 17:44:00,61.9,46.0,30.39,South,179,3.0,5.0,57,0.00,,,0.00,weatherlink.com 1.10,2013-05-02 21:44:00,
2013-05-02 17:59:00,61.2,46.0,30.38,SSE,153,2.0,7.0,58,0.00,,,0.00,weatherlink.com 1.10,2013-05-02 21:59:00,
2013-05-02 18:14:00,59.4,46.0,30.38,SSE,161,6.0,10.0,61,0.00,,,0.00,weatherlink.com 1.10,2013-05-02 22:14:00,
2013-05-02 18:29:00,57.5,46.0,30.38,ESE,118,3.0,12.0,66,0.00,,,0.00,weatherlink.com 1.10,2013-05-02 22:29:00,
2013-05-02 18:44:00,56.0,46.0,30.38,SE,136,7.0,10.0,68,0.00,,,0.00,weatherlink.com 1.10,2013-05-02 22:44:00,
2013-05-02 18:59:00,55.7,46.0,30.39,SSE,165,8.0,10.0,69,0.00,,,0.00,weatherlink.com 1.10,2013-05-02 22:59:00,
2013-05-02 19:14:00,55.4,46.0,30.39,SE,132,3.0,8.0,70,0.00,,,0.00,weatherlink.com 1.10,2013-05-02 23:14:00,
2013-05-02 19:29:00,54.7,45.0,30.39,SE,136,4.0,9.0,71,0.00,,,0.00,weatherlink.com 1.10,2013-05-02 23:29:00,
2013-05-02 19:44:00,54.2,46.0,30.39,ESE,123,5.0,8.0,73,0.00,,,0.00,weatherlink.com 1.10,2013-05-02 23:44:00,
2013-05-02 19:59:00,53.5,46.0,30.40,ESE,114,4.0,8.0,75,0.00,,,0.00,weatherlink.com 1.10,2013-05-02 23:59:00,
2013-05-02 20:14:00,53.8,45.0,30.40,East,98,5.0,7.0,73,0.00,,,0.00,weatherlink.com 1.10,2013-05-03 00:14:00,
2013-05-02 20:29:00,53.8,45.0,30.42,East,87,6.0,9.0,73,0.00,,,0.00,weatherlink.com 1.10,2013-05-03 00:29:00,
2013-05-02 20:44:00,53.3,46.0,30.42,NE,55,5.0,7.0,75,0.00,,,0.00,weatherlink.com 1.10,2013-05-03 00:44:00,
2013-05-02 20:59:00,53.4,46.0,30.43,NNE,24,4.0,6.0,76,0.00,,,0.00,weatherlink.com 1.10,2013-05-03 00:59:00,
2013-05-02 21:14:00,53.5,46.0,30.44,ENE,66,7.0,9.0,75,0.00,,,0.00,weatherlink.com 1.10,2013-05-03 01:14:00,
2013-05-02 21:29:00,53.5,46.0,30.45,East,82,9.0,17.0,75,0.00,,,0.00,weatherlink.com 1.10,2013-05-03 01:29:00,
2013-05-02 21:44:00,52.4,47.0,30.45,NE,56,5.0,21.0,82,0.00,,,0.00,weatherlink.com 1.10,2013-05-03 01:44:00,
2013-05-02 21:59:00,52.2,48.0,30.45,ENE,65,11.0,22.0,84,0.00,,,0.00,weatherlink.com 1.10,2013-05-03 01:59:00,
2013-05-02 22:14:00,51.7,47.0,30.46,NE,51,14.0,19.0,84,0.00,,,0.00,weatherlink.com 1.10,2013-05-03 02:14:00,
2013-05-02 22:29:00,51.2,47.0,30.46,East,96,11.0,21.0,86,0.00,,,0.00,weatherlink.com 1.10,2013-05-03 02:29:00,
2013-05-02 22:44:00,50.6,47.0,30.46,ENE,74,9.0,19.0,87,0.00,,,0.00,weatherlink.com 1.10,2013-05-03 02:44:00,
2013-05-02 22:59:00,50.6,46.0,30.46,ENE,71,7.0,11.0,85,0.00,,,0.00,weatherlink.com 1.10,2013-05-03 02:59:00,
2013-05-02 23:14:00,51.2,40.0,30.46,NE,48,10.0,14.0,66,0.00,,,0.00,weatherlink.com 1.10,2013-05-03 03:14:00,
2013-05-02 23:29:00,51.3,40.0,30.46,NE,55,3.0,12.0,66,0.00,,,0.00,weatherlink.com 1.10,2013-05-03 03:29:00,
2013-05-02 23:44:00,51.1,41.0,30.46,ENE,64,5.0,9.0,68,0.00,,,0.00,weatherlink.com 1.10,2013-05-03 03:44:00,
2013-05-02 23:59:00,50.9,41.0,30.46,NE,41,7.0,10.0,69,0.00,,,0.00,weatherlink.com 1.10,2013-05-03 03:59:00,